sensor_id;sensor_type;location;lat;lon;timestamp;temperature;humidity
12704;DHT22;6416;52.182;7.650;2022-11-20T00:01:11;0.70;65.40
12704;DHT22;6416;52.182;7.650;2022-11-20T00:03:36;0.60;65.20
12704;DHT22;6416;52.182;7.650;2022-11-20T00:06:09;0.60;65.20
12704;DHT22;6416;52.182;7.650;2022-11-20T00:08:35;0.60;65.20
12704;DHT22;6416;52.182;7.650;2022-11-20T00:11:15;0.60;65.10
12704;DHT22;6416;52.182;7.650;2022-11-20T00:13:42;0.50;65.00
12704;DHT22;6416;52.182;7.650;2022-11-20T00:16:09;0.50;65.10
12704;DHT22;6416;52.182;7.650;2022-11-20T00:18:36;0.50;65.10
12704;DHT22;6416;52.182;7.650;2022-11-20T00:21:05;0.50;65.10
12704;DHT22;6416;52.182;7.650;2022-11-20T00:23:31;0.40;65.00
12704;DHT22;6416;52.182;7.650;2022-11-20T00:26:02;0.40;65.00
12704;DHT22;6416;52.182;7.650;2022-11-20T00:28:27;0.40;65.00
12704;DHT22;6416;52.182;7.650;2022-11-20T00:31:13;0.40;65.20
12704;DHT22;6416;52.182;7.650;2022-11-20T00:33:39;0.40;65.20
12704;DHT22;6416;52.182;7.650;2022-11-20T00:36:10;0.30;65.10
12704;DHT22;6416;52.182;7.650;2022-11-20T00:38:36;0.30;65.00
12704;DHT22;6416;52.182;7.650;2022-11-20T00:41:04;0.30;65.10
12704;DHT22;6416;52.182;7.650;2022-11-20T00:43:30;0.30;65.10
12704;DHT22;6416;52.182;7.650;2022-11-20T00:46:07;0.20;65.10
12704;DHT22;6416;52.182;7.650;2022-11-20T00:48:33;0.20;65.00
12704;DHT22;6416;52.182;7.650;2022-11-20T00:50:59;0.20;65.20
12704;DHT22;6416;52.182;7.650;2022-11-20T00:53:25;0.20;65.20
12704;DHT22;6416;52.182;7.650;2022-11-20T00:55:59;0.20;65.30
12704;DHT22;6416;52.182;7.650;2022-11-20T00:58:29;0.10;65.20
12704;DHT22;6416;52.182;7.650;2022-11-20T01:01:00;0.10;65.20
12704;DHT22;6416;52.182;7.650;2022-11-20T01:03:26;0.10;65.20
12704;DHT22;6416;52.182;7.650;2022-11-20T01:05:51;0.10;65.30
12704;DHT22;6416;52.182;7.650;2022-11-20T01:08:17;0.10;65.40
12704;DHT22;6416;52.182;7.650;2022-11-20T01:10:42;0.10;65.40
12704;DHT22;6416;52.182;7.650;2022-11-20T01:13:07;0.00;65.30
12704;DHT22;6416;52.182;7.650;2022-11-20T01:15:33;0.00;65.30
12704;DHT22;6416;52.182;7.650;2022-11-20T01:17:59;0.00;65.30
12704;DHT22;6416;52.182;7.650;2022-11-20T01:20:24;0.00;65.40
12704;DHT22;6416;52.182;7.650;2022-11-20T01:22:50;0.00;65.40
12704;DHT22;6416;52.182;7.650;2022-11-20T01:25:15;0.00;65.40
12704;DHT22;6416;52.182;7.650;2022-11-20T01:27:41;0.00;65.40
12704;DHT22;6416;52.182;7.650;2022-11-20T01:30:07;-0.10;65.30
12704;DHT22;6416;52.182;7.650;2022-11-20T01:32:32;-0.10;65.30
12704;DHT22;6416;52.182;7.650;2022-11-20T01:34:58;-0.10;65.30
12704;DHT22;6416;52.182;7.650;2022-11-20T01:37:23;-0.10;65.30
12704;DHT22;6416;52.182;7.650;2022-11-20T01:39:48;-0.10;65.30
12704;DHT22;6416;52.182;7.650;2022-11-20T01:42:14;-0.20;65.30
12704;DHT22;6416;52.182;7.650;2022-11-20T01:47:09;-0.20;65.30
12704;DHT22;6416;52.182;7.650;2022-11-20T01:50:22;-0.20;65.40
12704;DHT22;6416;52.182;7.650;2022-11-20T01:52:34;-0.20;65.40
12704;DHT22;6416;52.182;7.650;2022-11-20T01:55:07;-0.20;65.40
12704;DHT22;6416;52.182;7.650;2022-11-20T01:57:34;-0.30;65.20
12704;DHT22;6416;52.182;7.650;2022-11-20T02:00:07;-0.30;65.30
12704;DHT22;6416;52.182;7.650;2022-11-20T02:02:34;-0.30;65.30
12704;DHT22;6416;52.182;7.650;2022-11-20T02:05:08;-0.30;65.30
12704;DHT22;6416;52.182;7.650;2022-11-20T02:07:36;-0.40;65.10
12704;DHT22;6416;52.182;7.650;2022-11-20T02:10:03;-0.40;65.30
12704;DHT22;6416;52.182;7.650;2022-11-20T02:12:28;-0.40;65.40
12704;DHT22;6416;52.182;7.650;2022-11-20T02:14:54;-0.40;65.50
12704;DHT22;6416;52.182;7.650;2022-11-20T02:17:19;-0.40;65.60
12704;DHT22;6416;52.182;7.650;2022-11-20T02:19:45;-0.50;65.50
12704;DHT22;6416;52.182;7.650;2022-11-20T02:22:17;-0.50;65.50
12704;DHT22;6416;52.182;7.650;2022-11-20T02:24:44;-0.50;65.40
12704;DHT22;6416;52.182;7.650;2022-11-20T02:27:13;-0.60;65.40
12704;DHT22;6416;52.182;7.650;2022-11-20T02:29:51;-0.60;65.40
12704;DHT22;6416;52.182;7.650;2022-11-20T02:32:24;-0.60;65.50
12704;DHT22;6416;52.182;7.650;2022-11-20T02:34:50;-0.60;65.50
12704;DHT22;6416;52.182;7.650;2022-11-20T02:37:16;-0.60;65.50
12704;DHT22;6416;52.182;7.650;2022-11-20T02:39:45;-0.70;65.40
12704;DHT22;6416;52.182;7.650;2022-11-20T02:42:11;-0.70;65.50
12704;DHT22;6416;52.182;7.650;2022-11-20T02:44:37;-0.70;65.50
12704;DHT22;6416;52.182;7.650;2022-11-20T02:47:02;-0.70;65.80
12704;DHT22;6416;52.182;7.650;2022-11-20T02:49:28;-0.70;65.50
12704;DHT22;6416;52.182;7.650;2022-11-20T02:51:53;-0.70;65.50
12704;DHT22;6416;52.182;7.650;2022-11-20T02:54:19;-0.80;65.40
12704;DHT22;6416;52.182;7.650;2022-11-20T02:56:44;-0.80;65.50
12704;DHT22;6416;52.182;7.650;2022-11-20T02:59:10;-0.80;65.60
12704;DHT22;6416;52.182;7.650;2022-11-20T03:01:35;-0.80;65.60
12704;DHT22;6416;52.182;7.650;2022-11-20T03:04:01;-0.80;65.60
12704;DHT22;6416;52.182;7.650;2022-11-20T03:06:27;-0.80;65.60
12704;DHT22;6416;52.182;7.650;2022-11-20T03:08:52;-0.90;65.50
12704;DHT22;6416;52.182;7.650;2022-11-20T03:11:18;-0.90;65.50
12704;DHT22;6416;52.182;7.650;2022-11-20T03:13:43;-0.90;65.50
12704;DHT22;6416;52.182;7.650;2022-11-20T03:16:11;-0.90;65.60
12704;DHT22;6416;52.182;7.650;2022-11-20T03:18:38;-0.90;65.50
12704;DHT22;6416;52.182;7.650;2022-11-20T03:21:03;-0.90;65.60
12704;DHT22;6416;52.182;7.650;2022-11-20T03:23:30;-1.00;65.50
12704;DHT22;6416;52.182;7.650;2022-11-20T03:26:06;-1.00;65.60
12704;DHT22;6416;52.182;7.650;2022-11-20T03:28:31;-1.00;65.60
12704;DHT22;6416;52.182;7.650;2022-11-20T03:30:57;-1.00;65.60
12704;DHT22;6416;52.182;7.650;2022-11-20T03:33:22;-1.00;65.60
12704;DHT22;6416;52.182;7.650;2022-11-20T03:35:48;-1.00;65.60
12704;DHT22;6416;52.182;7.650;2022-11-20T03:38:13;-1.00;65.70
12704;DHT22;6416;52.182;7.650;2022-11-20T03:40:39;-1.00;65.60
12704;DHT22;6416;52.182;7.650;2022-11-20T03:43:04;-1.10;65.50
12704;DHT22;6416;52.182;7.650;2022-11-20T03:45:30;-1.10;65.50
12704;DHT22;6416;52.182;7.650;2022-11-20T03:47:55;-1.10;65.50
12704;DHT22;6416;52.182;7.650;2022-11-20T03:50:20;-1.10;66.50
12704;DHT22;6416;52.182;7.650;2022-11-20T03:52:46;-1.10;67.20
12704;DHT22;6416;52.182;7.650;2022-11-20T03:55:11;-1.00;67.40
12704;DHT22;6416;52.182;7.650;2022-11-20T03:57:37;-1.00;67.20
12704;DHT22;6416;52.182;7.650;2022-11-20T04:00:04;-1.00;67.00
12704;DHT22;6416;52.182;7.650;2022-11-20T04:02:29;-1.00;66.80
12704;DHT22;6416;52.182;7.650;2022-11-20T04:04:55;-1.10;66.50
12704;DHT22;6416;52.182;7.650;2022-11-20T04:07:20;-1.10;66.30
12704;DHT22;6416;52.182;7.650;2022-11-20T04:09:46;-1.10;66.20
12704;DHT22;6416;52.182;7.650;2022-11-20T04:12:11;-1.10;66.00
12704;DHT22;6416;52.182;7.650;2022-11-20T04:14:36;-1.10;65.90
12704;DHT22;6416;52.182;7.650;2022-11-20T04:17:03;-1.10;65.70
12704;DHT22;6416;52.182;7.650;2022-11-20T04:19:28;-1.20;65.50
12704;DHT22;6416;52.182;7.650;2022-11-20T04:21:54;-1.20;65.80
12704;DHT22;6416;52.182;7.650;2022-11-20T04:24:22;-1.20;65.30
12704;DHT22;6416;52.182;7.650;2022-11-20T04:26:48;-1.20;65.10
12704;DHT22;6416;52.182;7.650;2022-11-20T04:29:13;-1.20;65.10
12704;DHT22;6416;52.182;7.650;2022-11-20T04:31:39;-1.20;65.00
12704;DHT22;6416;52.182;7.650;2022-11-20T04:34:06;-1.30;64.70
12704;DHT22;6416;52.182;7.650;2022-11-20T04:36:32;-1.30;64.70
12704;DHT22;6416;52.182;7.650;2022-11-20T04:39:00;-1.30;64.60
12704;DHT22;6416;52.182;7.650;2022-11-20T04:41:31;-1.30;64.50
12704;DHT22;6416;52.182;7.650;2022-11-20T04:43:59;-1.30;64.60
12704;DHT22;6416;52.182;7.650;2022-11-20T04:46:27;-1.40;64.50
12704;DHT22;6416;52.182;7.650;2022-11-20T04:48:52;-1.40;64.50
12704;DHT22;6416;52.182;7.650;2022-11-20T04:51:18;-1.40;64.40
12704;DHT22;6416;52.182;7.650;2022-11-20T04:53:43;-1.40;64.40
12704;DHT22;6416;52.182;7.650;2022-11-20T04:56:10;-1.40;64.30
12704;DHT22;6416;52.182;7.650;2022-11-20T04:58:36;-1.40;64.20
12704;DHT22;6416;52.182;7.650;2022-11-20T05:01:06;-1.50;64.10
12704;DHT22;6416;52.182;7.650;2022-11-20T05:03:31;-1.50;64.00
12704;DHT22;6416;52.182;7.650;2022-11-20T05:06:01;-1.50;64.00
12704;DHT22;6416;52.182;7.650;2022-11-20T05:08:26;-1.50;64.00
12704;DHT22;6416;52.182;7.650;2022-11-20T05:10:52;-1.60;63.80
12704;DHT22;6416;52.182;7.650;2022-11-20T05:13:17;-1.60;63.80
12704;DHT22;6416;52.182;7.650;2022-11-20T05:15:43;-1.60;63.80
12704;DHT22;6416;52.182;7.650;2022-11-20T05:18:08;-1.60;63.80
12704;DHT22;6416;52.182;7.650;2022-11-20T05:20:34;-1.60;63.80
12704;DHT22;6416;52.182;7.650;2022-11-20T05:22:59;-1.60;63.90
12704;DHT22;6416;52.182;7.650;2022-11-20T05:25:25;-1.60;63.80
12704;DHT22;6416;52.182;7.650;2022-11-20T05:27:50;-1.70;63.90
12704;DHT22;6416;52.182;7.650;2022-11-20T05:30:15;-1.70;64.10
12704;DHT22;6416;52.182;7.650;2022-11-20T05:32:41;-1.70;64.20
12704;DHT22;6416;52.182;7.650;2022-11-20T05:35:07;-1.70;64.10
12704;DHT22;6416;52.182;7.650;2022-11-20T05:37:32;-1.70;64.10
12704;DHT22;6416;52.182;7.650;2022-11-20T05:39:58;-1.70;64.00
12704;DHT22;6416;52.182;7.650;2022-11-20T05:42:24;-1.70;63.90
12704;DHT22;6416;52.182;7.650;2022-11-20T05:44:49;-1.70;63.90
12704;DHT22;6416;52.182;7.650;2022-11-20T05:47:14;-1.70;63.80
12704;DHT22;6416;52.182;7.650;2022-11-20T05:49:40;-1.80;63.70
12704;DHT22;6416;52.182;7.650;2022-11-20T05:52:05;-1.80;63.70
12704;DHT22;6416;52.182;7.650;2022-11-20T05:54:31;-1.80;63.70
12704;DHT22;6416;52.182;7.650;2022-11-20T05:56:56;-1.80;63.70
12704;DHT22;6416;52.182;7.650;2022-11-20T05:59:22;-1.80;63.90
12704;DHT22;6416;52.182;7.650;2022-11-20T06:01:47;-1.80;64.30
12704;DHT22;6416;52.182;7.650;2022-11-20T06:04:13;-1.80;64.30
12704;DHT22;6416;52.182;7.650;2022-11-20T06:06:38;-1.80;64.20
12704;DHT22;6416;52.182;7.650;2022-11-20T06:09:04;-1.90;64.10
12704;DHT22;6416;52.182;7.650;2022-11-20T06:11:29;-1.80;64.10
12704;DHT22;6416;52.182;7.650;2022-11-20T06:13:55;-1.90;64.10
12704;DHT22;6416;52.182;7.650;2022-11-20T06:16:20;-1.90;64.00
12704;DHT22;6416;52.182;7.650;2022-11-20T06:18:46;-1.90;63.90
12704;DHT22;6416;52.182;7.650;2022-11-20T06:21:22;-1.90;63.90
12704;DHT22;6416;52.182;7.650;2022-11-20T06:23:48;-1.90;63.90
12704;DHT22;6416;52.182;7.650;2022-11-20T06:26:19;-1.90;63.90
12704;DHT22;6416;52.182;7.650;2022-11-20T06:28:45;-1.90;63.80
12704;DHT22;6416;52.182;7.650;2022-11-20T06:31:13;-2.00;63.70
12704;DHT22;6416;52.182;7.650;2022-11-20T06:33:39;-2.00;63.70
12704;DHT22;6416;52.182;7.650;2022-11-20T06:36:05;-2.00;63.80
12704;DHT22;6416;52.182;7.650;2022-11-20T06:38:30;-2.00;63.80
12704;DHT22;6416;52.182;7.650;2022-11-20T06:40:56;-2.00;63.80
12704;DHT22;6416;52.182;7.650;2022-11-20T06:43:22;-2.00;63.90
12704;DHT22;6416;52.182;7.650;2022-11-20T06:45:54;-2.00;63.90
12704;DHT22;6416;52.182;7.650;2022-11-20T06:48:21;-2.10;63.90
12704;DHT22;6416;52.182;7.650;2022-11-20T06:50:46;-2.10;63.80
12704;DHT22;6416;52.182;7.650;2022-11-20T06:53:12;-2.10;63.90
12704;DHT22;6416;52.182;7.650;2022-11-20T06:55:42;-2.10;63.90
12704;DHT22;6416;52.182;7.650;2022-11-20T06:58:08;-2.10;64.00
12704;DHT22;6416;52.182;7.650;2022-11-20T07:00:33;-2.10;64.10
12704;DHT22;6416;52.182;7.650;2022-11-20T07:03:03;-2.10;64.10
12704;DHT22;6416;52.182;7.650;2022-11-20T07:05:28;-2.10;64.20
12704;DHT22;6416;52.182;7.650;2022-11-20T07:07:56;-2.10;64.20
12704;DHT22;6416;52.182;7.650;2022-11-20T07:10:21;-2.10;64.40
12704;DHT22;6416;52.182;7.650;2022-11-20T07:12:51;-2.10;64.50
12704;DHT22;6416;52.182;7.650;2022-11-20T07:15:18;-2.10;64.60
12704;DHT22;6416;52.182;7.650;2022-11-20T07:17:43;-2.10;64.80
12704;DHT22;6416;52.182;7.650;2022-11-20T07:20:09;-2.10;65.00
12704;DHT22;6416;52.182;7.650;2022-11-20T07:22:35;-2.00;65.20
12704;DHT22;6416;52.182;7.650;2022-11-20T07:25:00;-2.00;65.60
12704;DHT22;6416;52.182;7.650;2022-11-20T07:27:26;-2.00;66.10
12704;DHT22;6416;52.182;7.650;2022-11-20T07:29:51;-1.90;66.50
12704;DHT22;6416;52.182;7.650;2022-11-20T07:32:17;-1.90;67.00
12704;DHT22;6416;52.182;7.650;2022-11-20T07:34:42;-1.80;67.60
12704;DHT22;6416;52.182;7.650;2022-11-20T07:37:08;-1.70;68.70
12704;DHT22;6416;52.182;7.650;2022-11-20T07:39:33;-1.60;68.40
12704;DHT22;6416;52.182;7.650;2022-11-20T07:41:58;-1.50;68.60
12704;DHT22;6416;52.182;7.650;2022-11-20T07:44:24;-1.50;68.70
12704;DHT22;6416;52.182;7.650;2022-11-20T07:46:49;-1.40;68.90
12704;DHT22;6416;52.182;7.650;2022-11-20T07:49:15;-1.30;69.20
12704;DHT22;6416;52.182;7.650;2022-11-20T07:51:40;-1.20;69.50
12704;DHT22;6416;52.182;7.650;2022-11-20T07:54:06;-1.20;69.60
12704;DHT22;6416;52.182;7.650;2022-11-20T07:56:31;-1.10;69.90
12704;DHT22;6416;52.182;7.650;2022-11-20T07:58:57;-1.00;70.00
12704;DHT22;6416;52.182;7.650;2022-11-20T08:01:22;-0.90;70.10
12704;DHT22;6416;52.182;7.650;2022-11-20T08:03:48;-0.90;70.20
12704;DHT22;6416;52.182;7.650;2022-11-20T08:06:13;-0.80;70.40
12704;DHT22;6416;52.182;7.650;2022-11-20T08:08:38;-0.80;70.50
12704;DHT22;6416;52.182;7.650;2022-11-20T08:11:04;-0.70;70.90
12704;DHT22;6416;52.182;7.650;2022-11-20T08:13:30;-0.70;71.20
12704;DHT22;6416;52.182;7.650;2022-11-20T08:15:55;-0.60;71.60
12704;DHT22;6416;52.182;7.650;2022-11-20T08:18:21;-0.50;71.90
12704;DHT22;6416;52.182;7.650;2022-11-20T08:20:46;-0.50;72.20
12704;DHT22;6416;52.182;7.650;2022-11-20T08:23:11;-0.40;72.50
12704;DHT22;6416;52.182;7.650;2022-11-20T08:25:38;-0.40;72.70
12704;DHT22;6416;52.182;7.650;2022-11-20T08:28:06;-0.30;72.90
12704;DHT22;6416;52.182;7.650;2022-11-20T08:30:32;-0.20;73.20
12704;DHT22;6416;52.182;7.650;2022-11-20T08:33:03;-0.10;73.50
12704;DHT22;6416;52.182;7.650;2022-11-20T08:35:33;0.00;73.90
12704;DHT22;6416;52.182;7.650;2022-11-20T08:37:58;0.00;74.10
12704;DHT22;6416;52.182;7.650;2022-11-20T08:40:24;0.10;74.50
12704;DHT22;6416;52.182;7.650;2022-11-20T08:42:50;0.20;74.80
12704;DHT22;6416;52.182;7.650;2022-11-20T08:45:17;0.30;74.90
12704;DHT22;6416;52.182;7.650;2022-11-20T08:47:43;0.40;75.10
12704;DHT22;6416;52.182;7.650;2022-11-20T08:50:10;0.40;75.40
12704;DHT22;6416;52.182;7.650;2022-11-20T08:52:35;0.50;75.80
12704;DHT22;6416;52.182;7.650;2022-11-20T08:55:01;0.60;76.10
12704;DHT22;6416;52.182;7.650;2022-11-20T08:57:27;0.60;76.40
12704;DHT22;6416;52.182;7.650;2022-11-20T08:59:52;0.80;76.70
12704;DHT22;6416;52.182;7.650;2022-11-20T09:02:18;0.80;76.70
12704;DHT22;6416;52.182;7.650;2022-11-20T09:04:43;0.90;76.80
12704;DHT22;6416;52.182;7.650;2022-11-20T09:07:08;1.00;77.00
12704;DHT22;6416;52.182;7.650;2022-11-20T09:09:34;1.10;77.00
12704;DHT22;6416;52.182;7.650;2022-11-20T09:11:59;1.10;77.10
12704;DHT22;6416;52.182;7.650;2022-11-20T09:14:25;1.20;77.10
12704;DHT22;6416;52.182;7.650;2022-11-20T09:16:50;1.20;77.20
12704;DHT22;6416;52.182;7.650;2022-11-20T09:19:16;1.30;77.30
12704;DHT22;6416;52.182;7.650;2022-11-20T09:21:41;1.40;77.70
12704;DHT22;6416;52.182;7.650;2022-11-20T09:24:07;1.40;77.80
12704;DHT22;6416;52.182;7.650;2022-11-20T09:26:32;1.50;77.90
12704;DHT22;6416;52.182;7.650;2022-11-20T09:28:58;1.50;78.10
12704;DHT22;6416;52.182;7.650;2022-11-20T09:31:24;1.60;78.30
12704;DHT22;6416;52.182;7.650;2022-11-20T09:33:50;1.70;78.70
12704;DHT22;6416;52.182;7.650;2022-11-20T09:36:15;1.70;78.80
12704;DHT22;6416;52.182;7.650;2022-11-20T09:38:41;1.80;78.80
12704;DHT22;6416;52.182;7.650;2022-11-20T09:41:10;1.90;79.10
12704;DHT22;6416;52.182;7.650;2022-11-20T09:44:01;1.90;79.30
12704;DHT22;6416;52.182;7.650;2022-11-20T09:46:54;2.00;79.30
12704;DHT22;6416;52.182;7.650;2022-11-20T09:54:44;2.30;80.30
12704;DHT22;6416;52.182;7.650;2022-11-20T09:57:15;2.40;80.50
12704;DHT22;6416;52.182;7.650;2022-11-20T09:59:44;2.40;80.30
12704;DHT22;6416;52.182;7.650;2022-11-20T10:02:28;2.50;80.40
12704;DHT22;6416;52.182;7.650;2022-11-20T10:05:12;2.60;80.20
12704;DHT22;6416;52.182;7.650;2022-11-20T10:07:58;2.60;80.30
12704;DHT22;6416;52.182;7.650;2022-11-20T10:10:33;2.70;80.00
12704;DHT22;6416;52.182;7.650;2022-11-20T10:13:08;2.80;80.00
12704;DHT22;6416;52.182;7.650;2022-11-20T10:15:47;2.80;80.20
12704;DHT22;6416;52.182;7.650;2022-11-20T10:18:48;2.90;80.10
12704;DHT22;6416;52.182;7.650;2022-11-20T10:21:56;2.90;80.20
12704;DHT22;6416;52.182;7.650;2022-11-20T10:24:44;3.00;80.10
12704;DHT22;6416;52.182;7.650;2022-11-20T10:27:32;3.10;80.20
12704;DHT22;6416;52.182;7.650;2022-11-20T10:30:09;3.20;80.50
12704;DHT22;6416;52.182;7.650;2022-11-20T10:32:38;3.20;81.40
12704;DHT22;6416;52.182;7.650;2022-11-20T10:37:42;3.40;81.90
12704;DHT22;6416;52.182;7.650;2022-11-20T10:43:02;3.60;83.40
12704;DHT22;6416;52.182;7.650;2022-11-20T10:48:23;3.90;85.00
12704;DHT22;6416;52.182;7.650;2022-11-20T10:56:47;4.40;81.40
12704;DHT22;6416;52.182;7.650;2022-11-20T11:02:18;4.50;82.50
12704;DHT22;6416;52.182;7.650;2022-11-20T11:04:49;4.60;81.90
12704;DHT22;6416;52.182;7.650;2022-11-20T11:07:21;4.70;82.40
12704;DHT22;6416;52.182;7.650;2022-11-20T11:09:52;4.70;82.10
12704;DHT22;6416;52.182;7.650;2022-11-20T11:12:20;4.70;81.40
12704;DHT22;6416;52.182;7.650;2022-11-20T11:14:49;4.80;81.20
12704;DHT22;6416;52.182;7.650;2022-11-20T11:17:23;4.70;81.00
12704;DHT22;6416;52.182;7.650;2022-11-20T11:22:58;4.80;80.70
12704;DHT22;6416;52.182;7.650;2022-11-20T11:25:31;4.80;81.50
12704;DHT22;6416;52.182;7.650;2022-11-20T11:27:58;4.80;81.30
12704;DHT22;6416;52.182;7.650;2022-11-20T11:30:26;4.90;82.00
12704;DHT22;6416;52.182;7.650;2022-11-20T11:33:03;4.90;82.60
12704;DHT22;6416;52.182;7.650;2022-11-20T11:35:29;5.00;82.00
12704;DHT22;6416;52.182;7.650;2022-11-20T11:38:03;5.00;82.00
12704;DHT22;6416;52.182;7.650;2022-11-20T11:40:31;5.00;80.70
12704;DHT22;6416;52.182;7.650;2022-11-20T11:42:59;5.00;80.40
12704;DHT22;6416;52.182;7.650;2022-11-20T11:45:27;5.00;80.50
12704;DHT22;6416;52.182;7.650;2022-11-20T11:47:54;5.00;80.40
12704;DHT22;6416;52.182;7.650;2022-11-20T11:50:23;5.00;80.30
12704;DHT22;6416;52.182;7.650;2022-11-20T11:53:03;4.90;80.10
12704;DHT22;6416;52.182;7.650;2022-11-20T11:55:49;4.90;79.90
12704;DHT22;6416;52.182;7.650;2022-11-20T11:58:43;4.90;79.80
12704;DHT22;6416;52.182;7.650;2022-11-20T12:01:31;4.90;79.20
12704;DHT22;6416;52.182;7.650;2022-11-20T12:06:44;4.90;79.60
12704;DHT22;6416;52.182;7.650;2022-11-20T12:09:11;4.90;80.50
12704;DHT22;6416;52.182;7.650;2022-11-20T12:11:44;4.90;80.40
12704;DHT22;6416;52.182;7.650;2022-11-20T12:14:33;4.90;80.50
12704;DHT22;6416;52.182;7.650;2022-11-20T12:17:01;4.90;79.80
12704;DHT22;6416;52.182;7.650;2022-11-20T12:19:30;4.90;80.80
12704;DHT22;6416;52.182;7.650;2022-11-20T12:24:55;4.90;81.30
12704;DHT22;6416;52.182;7.650;2022-11-20T12:27:51;4.90;82.10
12704;DHT22;6416;52.182;7.650;2022-11-20T12:30:22;5.00;81.60
12704;DHT22;6416;52.182;7.650;2022-11-20T12:47:17;5.30;81.70
12704;DHT22;6416;52.182;7.650;2022-11-20T12:55:41;5.40;81.40
12704;DHT22;6416;52.182;7.650;2022-11-20T12:58:17;5.40;81.60
12704;DHT22;6416;52.182;7.650;2022-11-20T13:00:56;5.40;81.40
12704;DHT22;6416;52.182;7.650;2022-11-20T13:03:47;5.50;81.20
12704;DHT22;6416;52.182;7.650;2022-11-20T13:06:18;5.50;81.30
12704;DHT22;6416;52.182;7.650;2022-11-20T13:08:55;5.60;82.60
12704;DHT22;6416;52.182;7.650;2022-11-20T13:14:08;5.70;83.30
12704;DHT22;6416;52.182;7.650;2022-11-20T13:19:15;5.80;81.90
12704;DHT22;6416;52.182;7.650;2022-11-20T13:21:46;5.80;81.30
12704;DHT22;6416;52.182;7.650;2022-11-20T13:26:47;5.80;81.00
12704;DHT22;6416;52.182;7.650;2022-11-20T13:29:17;5.80;81.90
12704;DHT22;6416;52.182;7.650;2022-11-20T13:31:45;5.80;81.40
12704;DHT22;6416;52.182;7.650;2022-11-20T13:34:27;5.80;81.30
12704;DHT22;6416;52.182;7.650;2022-11-20T13:36:56;5.90;80.40
12704;DHT22;6416;52.182;7.650;2022-11-20T13:41:59;5.80;80.10
12704;DHT22;6416;52.182;7.650;2022-11-20T13:44:33;5.80;79.50
12704;DHT22;6416;52.182;7.650;2022-11-20T13:47:00;5.80;79.50
12704;DHT22;6416;52.182;7.650;2022-11-20T13:49:33;5.80;79.50
12704;DHT22;6416;52.182;7.650;2022-11-20T13:55:11;5.70;78.50
12704;DHT22;6416;52.182;7.650;2022-11-20T14:00:18;5.60;79.10
12704;DHT22;6416;52.182;7.650;2022-11-20T14:05:26;5.60;79.20
12704;DHT22;6416;52.182;7.650;2022-11-20T14:07:53;5.50;79.40
12704;DHT22;6416;52.182;7.650;2022-11-20T14:10:29;5.50;79.40
12704;DHT22;6416;52.182;7.650;2022-11-20T14:12:54;5.50;78.90
12704;DHT22;6416;52.182;7.650;2022-11-20T14:15:32;5.50;79.30
12704;DHT22;6416;52.182;7.650;2022-11-20T14:17:58;5.50;78.70
12704;DHT22;6416;52.182;7.650;2022-11-20T14:20:28;5.50;78.80
12704;DHT22;6416;52.182;7.650;2022-11-20T14:22:55;5.40;78.40
12704;DHT22;6416;52.182;7.650;2022-11-20T14:25:23;5.40;78.20
12704;DHT22;6416;52.182;7.650;2022-11-20T14:27:54;5.30;77.90
12704;DHT22;6416;52.182;7.650;2022-11-20T14:30:26;5.30;77.70
12704;DHT22;6416;52.182;7.650;2022-11-20T14:32:55;5.20;77.60
12704;DHT22;6416;52.182;7.650;2022-11-20T14:35:29;5.20;77.70
12704;DHT22;6416;52.182;7.650;2022-11-20T14:37:56;5.20;77.50
12704;DHT22;6416;52.182;7.650;2022-11-20T14:42:48;5.10;78.10
12704;DHT22;6416;52.182;7.650;2022-11-20T14:45:13;5.10;78.40
12704;DHT22;6416;52.182;7.650;2022-11-20T14:47:40;5.10;78.70
12704;DHT22;6416;52.182;7.650;2022-11-20T14:50:14;5.00;79.60
12704;DHT22;6416;52.182;7.650;2022-11-20T14:52:59;5.10;78.90
12704;DHT22;6416;52.182;7.650;2022-11-20T14:55:35;5.10;79.00
12704;DHT22;6416;52.182;7.650;2022-11-20T14:58:27;5.10;79.30
12704;DHT22;6416;52.182;7.650;2022-11-20T15:01:03;5.10;79.20
12704;DHT22;6416;52.182;7.650;2022-11-20T15:03:36;5.10;79.30
12704;DHT22;6416;52.182;7.650;2022-11-20T15:06:01;5.20;79.20
12704;DHT22;6416;52.182;7.650;2022-11-20T15:08:27;5.20;79.50
12704;DHT22;6416;52.182;7.650;2022-11-20T15:10:53;5.20;79.50
12704;DHT22;6416;52.182;7.650;2022-11-20T15:13:45;5.20;79.60
12704;DHT22;6416;52.182;7.650;2022-11-20T15:16:19;5.20;78.80
12704;DHT22;6416;52.182;7.650;2022-11-20T15:18:46;5.20;79.40
12704;DHT22;6416;52.182;7.650;2022-11-20T15:21:14;5.20;79.60
12704;DHT22;6416;52.182;7.650;2022-11-20T15:23:40;5.20;79.70
12704;DHT22;6416;52.182;7.650;2022-11-20T15:26:06;5.20;79.80
12704;DHT22;6416;52.182;7.650;2022-11-20T15:28:35;5.20;79.80
12704;DHT22;6416;52.182;7.650;2022-11-20T15:31:02;5.20;79.90
12704;DHT22;6416;52.182;7.650;2022-11-20T15:33:28;5.20;79.70
12704;DHT22;6416;52.182;7.650;2022-11-20T15:35:54;5.20;79.70
12704;DHT22;6416;52.182;7.650;2022-11-20T15:38:19;5.20;79.60
12704;DHT22;6416;52.182;7.650;2022-11-20T15:40:47;5.20;79.60
12704;DHT22;6416;52.182;7.650;2022-11-20T15:43:13;5.20;79.60
12704;DHT22;6416;52.182;7.650;2022-11-20T15:45:49;5.20;79.50
12704;DHT22;6416;52.182;7.650;2022-11-20T15:48:20;5.30;79.30
12704;DHT22;6416;52.182;7.650;2022-11-20T15:53:33;5.20;79.50
12704;DHT22;6416;52.182;7.650;2022-11-20T15:55:58;5.30;79.80
12704;DHT22;6416;52.182;7.650;2022-11-20T15:58:24;5.20;79.70
12704;DHT22;6416;52.182;7.650;2022-11-20T16:00:50;5.20;79.70
12704;DHT22;6416;52.182;7.650;2022-11-20T16:03:16;5.30;79.70
12704;DHT22;6416;52.182;7.650;2022-11-20T16:05:42;5.30;79.80
12704;DHT22;6416;52.182;7.650;2022-11-20T16:08:08;5.30;79.90
12704;DHT22;6416;52.182;7.650;2022-11-20T16:10:33;5.30;79.80
12704;DHT22;6416;52.182;7.650;2022-11-20T16:12:59;5.30;79.90
12704;DHT22;6416;52.182;7.650;2022-11-20T16:15:24;5.30;79.80
12704;DHT22;6416;52.182;7.650;2022-11-20T16:17:50;5.30;79.80
12704;DHT22;6416;52.182;7.650;2022-11-20T16:20:19;5.30;79.80
12704;DHT22;6416;52.182;7.650;2022-11-20T16:22:44;5.40;79.70
12704;DHT22;6416;52.182;7.650;2022-11-20T16:25:09;5.40;79.80
12704;DHT22;6416;52.182;7.650;2022-11-20T16:27:35;5.40;79.70
12704;DHT22;6416;52.182;7.650;2022-11-20T16:30:00;5.40;79.70
12704;DHT22;6416;52.182;7.650;2022-11-20T16:32:26;5.40;79.70
12704;DHT22;6416;52.182;7.650;2022-11-20T16:34:51;5.40;79.70
12704;DHT22;6416;52.182;7.650;2022-11-20T16:37:17;5.40;79.60
12704;DHT22;6416;52.182;7.650;2022-11-20T16:39:42;5.40;79.60
12704;DHT22;6416;52.182;7.650;2022-11-20T16:42:08;5.40;79.50
12704;DHT22;6416;52.182;7.650;2022-11-20T16:44:33;5.40;79.60
12704;DHT22;6416;52.182;7.650;2022-11-20T16:46:58;5.50;79.60
12704;DHT22;6416;52.182;7.650;2022-11-20T16:49:24;5.50;79.70
12704;DHT22;6416;52.182;7.650;2022-11-20T16:51:49;5.50;79.60
12704;DHT22;6416;52.182;7.650;2022-11-20T16:54:15;5.50;79.50
12704;DHT22;6416;52.182;7.650;2022-11-20T16:56:40;5.50;79.70
12704;DHT22;6416;52.182;7.650;2022-11-20T16:59:06;5.50;79.60
12704;DHT22;6416;52.182;7.650;2022-11-20T17:01:31;5.50;79.60
12704;DHT22;6416;52.182;7.650;2022-11-20T17:04:05;5.50;79.60
12704;DHT22;6416;52.182;7.650;2022-11-20T17:06:33;5.50;79.60
12704;DHT22;6416;52.182;7.650;2022-11-20T17:08:59;5.60;79.70
12704;DHT22;6416;52.182;7.650;2022-11-20T17:11:25;5.50;79.70
12704;DHT22;6416;52.182;7.650;2022-11-20T17:13:53;5.50;79.60
12704;DHT22;6416;52.182;7.650;2022-11-20T17:16:20;5.60;79.60
12704;DHT22;6416;52.182;7.650;2022-11-20T17:18:46;5.60;79.60
12704;DHT22;6416;52.182;7.650;2022-11-20T17:21:12;5.60;79.60